Flight Track Log - Related Links

Times and Time Zones

All times are in EDT time to prevent confusion due to time zone crossing. See the N478SP flight status page for this flight to view local times or setup timezone preferences in your user account.

Time Position Orientation Groundspeed Altitude Reporting Facility
EDT Latitude Longitude Course Direction KTS MPH feet Rate Location/Type
Mon 04:43:00 PM 31.3081 -82.8281 171° South  Level Estimated
Mon 04:43:17 PM 31.4461 -82.8803 146° Southeast 65 75 1,900  Level Jacksonville Center
Mon 04:43:29 PM 31.4442 -82.8781 136° Southeast 63 72 2,000 612 Climbing Jacksonville Center
Mon 04:44:06 PM 31.4400 -82.8683 117° Southeast 64 74 2,400 689 Climbing Jacksonville Center
Mon 04:44:30 PM 31.4294 -82.8658 169° South 66 76 2,700 600 Climbing Jacksonville Center
Mon 04:45:06 PM 31.4233 -82.8608 145° Southeast 64 74 3,000 600 Climbing Jacksonville Center
Mon 04:45:30 PM 31.4128 -82.8586 170° South 67 77 3,300 600 Climbing Jacksonville Center
Mon 04:46:06 PM 31.4044 -82.8561 166° South 69 79 3,600 689 Climbing Jacksonville Center
Mon 04:46:31 PM 31.3939 -82.8511 158° South 73 84 4,000 600 Climbing Jacksonville Center
Mon 04:47:06 PM 31.3856 -82.8439 144° Southeast 69 79 4,200 492 Climbing Jacksonville Center
Mon 04:47:32 PM 31.3731 -82.8414 170° South 81 93 4,500 600 Climbing Jacksonville Center
Mon 04:48:06 PM 31.3647 -82.8392 167° South 69 79 4,800 545 Climbing Jacksonville Center
Mon 04:48:38 PM 31.3461 -82.8392 180° South 89 102 5,100 300 Climbing Jacksonville Center
Mon 04:49:06 PM 31.3397 -82.8367 162° South 74 85 5,100  Level Jacksonville Center
Mon 04:49:33 PM 31.3231 -82.8342 173° South 109 125 5,100  Level Jacksonville Center
Mon 04:50:06 PM 31.3064 -82.8342 180° South 98 113 5,100 -100 Level Jacksonville Center
Mon 04:50:33 PM 31.2875 -82.8317 174° South 124 143 5,000 -200 Descending Jacksonville Center
Mon 04:51:06 PM 31.2750 -82.8294 171° South 111 128 4,900 -98 Descending Jacksonville Center
Mon 04:51:34 PM 31.2542 -82.8269 174° South 122 140 4,900  Level Jacksonville Center
Mon 04:52:06 PM 31.2417 -82.8269 180° South 122 140 4,900 98 Level Jacksonville Center
Mon 04:52:35 PM 31.2206 -82.8244 174° South 116 133 5,000 100 Climbing Jacksonville Center
Mon 04:53:06 PM 31.2103 -82.8197 159° South 122 140 5,000  Level Jacksonville Center
Mon 04:53:35 PM 31.1872 -82.8197 180° South 118 136 5,000  Level Jacksonville Center
Mon 04:54:36 PM 31.1539 -82.8125 169° South 123 142 5,000  Level Jacksonville Center
Mon 04:55:37 PM 31.1183 -82.8075 173° South 122 140 5,000 -50 Level Jacksonville Center
Mon 04:56:37 PM 31.0850 -82.8053 177° South 123 142 4,900  Descending Jacksonville Center
Mon 04:57:38 PM 31.0494 -82.8006 174° South 120 138 5,000  Climbing Jacksonville Center
Mon 04:58:38 PM 31.0161 -82.8006 180° South 125 144 4,900 -50 Descending Jacksonville Center
Mon 04:59:39 PM 30.9828 -82.7981 176° South 118 136 4,900 48 Level Jacksonville Center
Mon 05:00:42 PM 30.9492 -82.7933 173° South 131 151 5,000  Climbing Jacksonville Center
Mon 05:01:42 PM 30.9158 -82.7908 176° South 138 159 4,900 -50 Descending Jacksonville Center
Mon 05:02:42 PM 30.8825 -82.7886 177° South 133 153 4,900  Level Jacksonville Center
Mon 05:03:42 PM 30.8469 -82.7908 183° South 133 153 4,900  Level Jacksonville Center
Mon 05:04:42 PM 30.8156 -82.7908 180° South 122 140 4,900  Level Jacksonville Center
Mon 05:05:42 PM 30.7822 -82.7861 173° South 122 140 4,900 50 Level Jacksonville Center
Mon 05:06:42 PM 30.7489 -82.7814 173° South 122 140 5,000 50 Climbing Jacksonville Center
Mon 05:07:42 PM 30.7092 -82.7814 180° South 127 146 5,000 -50 Level Jacksonville Center
Mon 05:08:42 PM 30.6758 -82.7814 180° South 127 146 4,900 -100 Descending Jacksonville Center
Mon 05:09:42 PM 30.6381 -82.7742 171° South 133 153 4,800  Descending Jacksonville Center
Mon 05:10:42 PM 30.6025 -82.7694 173° South 133 153 4,900 50 Climbing Jacksonville Center
Mon 05:11:42 PM 30.5672 -82.7575 164° South 133 153 4,900  Level Jacksonville Center
Mon 05:12:42 PM 30.5336 -82.7456 163° South 133 153 4,900  Level Jacksonville Center
Mon 05:13:42 PM 30.4981 -82.7336 164° South 133 153 4,900  Level Jacksonville Center
Mon 05:14:42 PM 30.4606 -82.7214 164° South 133 153 4,900  Level Jacksonville Center
Mon 05:15:42 PM 30.4250 -82.7119 167° South 133 153 4,900 50 Level Jacksonville Center
Mon 05:16:42 PM 30.3894 -82.7022 167° South 133 153 5,000  Climbing Jacksonville Center
Mon 05:17:42 PM 30.3519 -82.6928 168° South 133 153 4,900 -50 Descending Jacksonville Center
Mon 05:18:42 PM 30.3144 -82.6856 171° South 138 159 4,900  Level Jacksonville Center
Mon 05:19:42 PM 30.2747 -82.6786 171° South 145 167 4,900 -200 Level Jacksonville Center
Mon 05:20:42 PM 30.2372 -82.6667 165° South 145 167 4,500 -350 Descending Jacksonville Center
Mon 05:21:42 PM 30.1953 -82.6569 169° South 145 167 4,200 -300 Descending Jacksonville Center
Mon 05:22:02 PM 30.1786 -82.6522 166° South 149 171 4,100 -300 Descending Jacksonville Center
Mon 05:22:42 PM 30.1578 -82.6428 159° South 145 167 3,900 -429 Descending Jacksonville Center
Mon 05:22:44 PM 30.1514 -82.6428 180° South 144 166 3,800 -762 Descending Jacksonville Center
Mon 05:23:45 PM 30.1097 -82.6333 169° South 145 167 3,100 -458 Descending Jacksonville Center
Mon 05:24:42 PM 30.0803 -82.6236 164° South 145 167 2,900 -197 Descending Jacksonville Center
Mon 05:24:46 PM 30.0700 -82.6239 181° South 139 160 2,900  Level Jacksonville Center
Mon 05:25:42 PM 30.0408 -82.6192 172° South 145 167 2,900  Level Jacksonville Center
Mon 05:25:47 PM 30.0325 -82.6192 180° South 134 154 2,900 100 Level Jacksonville Center
Mon 05:26:42 PM 30.0011 -82.6144 173° South 140 161 3,000 197 Climbing Jacksonville Center
Mon 05:26:48 PM 29.9947 -82.6144 180° South 129 148 3,100  Climbing Jacksonville Center
Mon 05:27:42 PM 29.9656 -82.6072 168° South 140 161 3,000 -164 Descending Jacksonville Center
Mon 05:28:01 PM 29.9489 -82.6097 187° South 139 160 2,900 -100 Descending Jacksonville Center
Mon 05:28:42 PM 29.9258 -82.6025 165° South 140 161 2,900  Level Jacksonville Center
Mon 05:28:56 PM 29.9156 -82.6025 180° South 140 161 2,900  Level Jacksonville Center
Mon 05:29:42 PM 29.8883 -82.5908 160° South 140 161 2,900  Level Jacksonville Center
Mon 05:29:56 PM 29.8758 -82.5908 180° South 139 160 2,900  Level Jacksonville Center
Mon 05:30:42 PM 29.8506 -82.5836 166° South 140 161 2,900  Level Jacksonville Center
Mon 05:30:57 PM 29.8381 -82.5836 180° South 136 157 2,900  Level Jacksonville Center
Mon 05:31:42 PM 29.8153 -82.5742 160° South 140 161 2,900  Level Jacksonville Center
Mon 05:32:10 PM 29.7942 -82.5694 169° South 139 160 2,900 -202 Level Jacksonville Center
Mon 05:33:11 PM 29.7567 -82.5600 168° South 141 162 2,600 -466 Descending Jacksonville Center
Mon 05:34:06 PM 29.7211 -82.5531 170° South 144 166 2,000 -655 Descending Jacksonville Center

Login

Don't have an account? Register now (free) for customized features, flight alerts, and more!